»·PEaware :: UAL1399 KEGE-KTEX

UAL1399 :: KEGE-KTEX

FLIGHT INFORMATION

Flight Status: Arrived
Operator:
United Airlines
More flights by this operator :: More flights under this callsign
Pilot: David C. (16084)
Aircraft: DEHAVILLAND DASH 8 400
(DH8D)
More flights by this aircraft type
Origin: KEGE Eagle Co Regl
United States
Destination: KTEX Telluride Regl
United States
More flights between these airports :: More routes between these airports
Route: BEVVR1 SPRKT JNC ETL
File this flight plan on PilotEdge
Remarks:
Altitude:
(Current/Filed)
19,000ft
Speed:
(Current/Filed)
319kts
Departed: 08-May-23 11:54 AM
Arrived: 08-May-23 12:36 PM
Distance/Time
Traveled:
111nm/0:42
Distance/Time
To Go:
Arrived

Flight Plot

Page will automatically refresh every two minutes.

Flight plan parsing failed; only flown route is shown


Map Options




Map Legend


Flown Route
Filed Route
Departure Airport
Arrival Airport
Navaid (VOR, NDB)
Fix

Horizontal Profiles

Position Reports

Time Latitude Longitude Heading Altitude Ground
Speed
08-May-23 11:20 39.640980 -106.912162 172 6552ft 0kts
08-May-23 11:21 39.640980 -106.912162 172 6552ft 0kts
08-May-23 11:22 39.640980 -106.912162 172 6552ft 0kts
08-May-23 11:23 39.640980 -106.912162 172 6552ft 0kts
08-May-23 11:24 39.640980 -106.912162 172 6552ft 0kts
08-May-23 11:25 39.640980 -106.912162 172 6552ft 0kts
08-May-23 11:26 39.640980 -106.912162 172 6552ft 0kts
08-May-23 11:27 39.640980 -106.912162 172 6552ft 0kts
08-May-23 11:28 39.640980 -106.912162 172 6552ft 0kts
08-May-23 11:29 39.640980 -106.912162 172 6552ft 0kts
08-May-23 11:30 39.640980 -106.912162 172 6552ft 0kts
08-May-23 11:31 39.640980 -106.912162 172 6552ft 0kts
08-May-23 11:32 39.640980 -106.912162 172 6552ft 0kts
08-May-23 11:33 39.640980 -106.912162 172 6552ft 0kts
08-May-23 11:34 39.640980 -106.912162 172 6552ft 0kts
08-May-23 11:35 39.640980 -106.912162 172 6552ft 0kts
08-May-23 11:36 39.640980 -106.912162 172 6552ft 0kts
08-May-23 11:37 39.640980 -106.912162 172 6552ft 0kts
08-May-23 11:38 39.640980 -106.912162 172 6552ft 0kts
08-May-23 11:39 39.640980 -106.912162 172 6552ft 0kts
08-May-23 11:40 39.640980 -106.912162 172 6552ft 0kts
08-May-23 11:41 39.640980 -106.912162 172 6552ft 0kts
08-May-23 11:42 39.640980 -106.912162 172 6552ft 0kts
08-May-23 11:43 39.641061 -106.912177 172 6552ft 0kts
08-May-23 11:44 39.641353 -106.912334 142 6552ft 0kts
08-May-23 11:45 39.641353 -106.912334 142 6552ft 0kts
08-May-23 11:46 39.641353 -106.912334 142 6552ft 0kts
08-May-23 11:47 39.641353 -106.912334 142 6552ft 0kts
08-May-23 11:48 39.641350 -106.912331 142 6552ft 1kts
08-May-23 11:49 39.641865 -106.912178 19 6552ft 9kts
08-May-23 11:50 39.642758 -106.906106 80 6552ft 18kts
08-May-23 11:51 39.643432 -106.900301 48 6552ft 0kts
08-May-23 11:52 39.643679 -106.900098 15 6552ft 9kts
08-May-23 11:53 39.642332 -106.919772 263 6601ft 149kts
08-May-23 11:54 39.611447 -106.959122 215 8489ft 175kts
08-May-23 11:55 39.580435 -107.002252 267 10445ft 168kts
08-May-23 11:56 39.587937 -107.071417 308 10985ft 226kts
08-May-23 11:57 39.642256 -107.109098 6 12330ft 246kts
08-May-23 11:58 39.707538 -107.092343 6 13845ft 240kts
08-May-23 11:59 39.755917 -107.136241 300 14936ft 221kts
08-May-23 12:00 39.791158 -107.201501 298 16103ft 220kts
08-May-23 12:01 39.825719 -107.267614 297 17144ft 221kts
08-May-23 12:02 39.860180 -107.333925 296 18121ft 221kts
08-May-23 12:03 39.894672 -107.400487 296 18973ft 223kts
08-May-23 12:04 39.929468 -107.467757 296 19724ft 224kts
08-May-23 12:05 39.951122 -107.539074 244 20115ft 216kts
08-May-23 12:06 39.911368 -107.605020 230 20118ft 246kts
08-May-23 12:07 39.863346 -107.673807 229 20115ft 268kts
08-May-23 12:08 39.811400 -107.747434 229 20112ft 282kts
08-May-23 12:09 39.752195 -107.815007 198 20116ft 300kts
08-May-23 12:10 39.668438 -107.831022 196 20110ft 307kts
08-May-23 12:11 39.584215 -107.852614 197 20110ft 310kts
08-May-23 12:12 39.499765 -107.875182 197 20110ft 311kts
08-May-23 12:13 39.414961 -107.897885 197 20110ft 313kts
08-May-23 12:14 39.329792 -107.920640 196 20109ft 313kts
08-May-23 12:15 39.244504 -107.943376 196 20109ft 314kts
08-May-23 12:16 39.159188 -107.966119 196 20109ft 314kts
08-May-23 12:17 39.073919 -107.988685 196 20110ft 314kts
08-May-23 12:18 38.988391 -108.011290 196 20102ft 314kts
08-May-23 12:19 38.903108 -108.033778 196 20101ft 313kts
08-May-23 12:20 38.817398 -108.056347 196 20118ft 311kts
08-May-23 12:21 38.732563 -108.078632 196 20133ft 312kts
08-May-23 12:22 38.647773 -108.100876 195 20149ft 312kts
08-May-23 12:23 38.562593 -108.123139 195 20163ft 312kts
08-May-23 12:24 38.477532 -108.145328 195 20174ft 313kts
08-May-23 12:25 38.392413 -108.167469 195 20189ft 313kts
08-May-23 12:26 38.306560 -108.189834 195 19611ft 327kts
08-May-23 12:27 38.218292 -108.212600 194 17728ft 321kts
08-May-23 12:28 38.139249 -108.232890 194 16752ft 294kts
08-May-23 12:29 38.061577 -108.246079 166 15791ft 273kts
08-May-23 12:30 38.022187 -108.175683 116 14769ft 230kts
08-May-23 12:31 37.998978 -108.101570 115 13455ft 225kts
08-May-23 12:32 37.978473 -108.026631 107 12728ft 218kts
08-May-23 12:33 37.965999 -107.962307 112 10752ft 181kts
08-May-23 12:34 37.952949 -107.904738 104 9078ft 110kts
08-May-23 12:35 37.952588 -107.897568 285 9080ft 13kts
08-May-23 12:36 37.953956 -107.902523 348 9080ft 10kts

Navigation Log

Ident Type
Flight plan parsing failed, navigation log unavailable